createdAt,value
2022-09-30T00:04:56.132Z,15.23
2022-09-30T00:14:57.472Z,17.20
2022-09-30T00:24:58.746Z,16.33
2022-09-30T00:35:00.130Z,16.65
2022-09-30T00:45:01.419Z,15.90
2022-09-30T00:55:02.726Z,18.50
2022-09-30T01:05:04.032Z,15.52
2022-09-30T01:15:05.400Z,16.88
2022-09-30T01:25:06.695Z,15.02
2022-09-30T01:35:08.008Z,16.98
2022-09-30T01:45:09.321Z,12.13
2022-09-30T01:55:10.763Z,13.85
2022-09-30T02:05:12.061Z,13.65
2022-09-30T02:15:13.377Z,12.13
2022-09-30T02:25:15.195Z,11.95
2022-09-30T02:35:16.552Z,16.48
2022-09-30T02:45:17.852Z,13.10
2022-09-30T02:55:19.358Z,11.82
2022-09-30T03:05:20.622Z,11.68
2022-09-30T03:15:21.923Z,11.20
2022-09-30T03:25:23.221Z,13.75
2022-09-30T03:35:24.602Z,14.13
2022-09-30T03:45:25.951Z,10.20
2022-09-30T03:55:27.239Z,11.25
2022-09-30T04:05:28.556Z,11.80
2022-09-30T04:15:29.858Z,10.98
2022-09-30T04:25:32.249Z,11.93
2022-09-30T04:35:33.542Z,10.55
2022-09-30T04:45:34.872Z,25.42
2022-09-30T04:55:36.218Z,23.67
2022-09-30T05:05:37.510Z,12.45
2022-09-30T05:15:38.804Z,11.57
2022-09-30T05:25:40.126Z,10.85
2022-09-30T05:35:41.590Z,15.95
2022-09-30T05:45:42.907Z,12.02
2022-09-30T05:55:44.192Z,10.05
2022-09-30T06:05:45.926Z,10.25
2022-09-30T06:15:47.663Z,8.50
2022-09-30T06:25:48.952Z,15.60
2022-09-30T06:35:50.220Z,10.80
2022-09-30T06:45:52.321Z,13.88
2022-09-30T06:55:54.170Z,14.00
2022-09-30T07:05:57.224Z,12.85
2022-09-30T07:15:58.517Z,16.98
2022-09-30T07:26:01.106Z,16.33
2022-09-30T07:36:07.977Z,17.92
2022-09-30T07:46:09.477Z,17.65
2022-09-30T07:56:10.800Z,17.88
2022-09-30T08:06:12.095Z,17.08
2022-09-30T08:16:13.442Z,18.27
2022-09-30T08:26:15.541Z,20.67
2022-09-30T08:36:16.904Z,17.75
2022-09-30T08:46:18.265Z,23.13
2022-09-30T08:56:19.612Z,23.50
2022-09-30T09:06:20.929Z,24.05
2022-09-30T09:16:23.125Z,23.38
2022-09-30T09:26:24.494Z,23.73
2022-09-30T09:36:25.785Z,21.58
2022-09-30T09:46:27.212Z,17.55
2022-09-30T09:56:32.249Z,21.45
2022-09-30T10:06:33.913Z,19.35
2022-09-30T10:16:38.248Z,23.73
2022-09-30T10:26:40.058Z,19.13
2022-09-30T10:36:43.384Z,19.15
2022-09-30T10:46:44.931Z,20.73
2022-09-30T10:56:46.371Z,23.40
2022-09-30T11:06:47.574Z,20.95
2022-09-30T11:16:48.971Z,21.65
2022-09-30T11:26:50.321Z,16.52
2022-09-30T11:36:51.636Z,13.80
2022-09-30T11:46:52.976Z,15.63
2022-09-30T11:56:54.317Z,13.50
2022-09-30T12:06:55.600Z,10.10
2022-09-30T12:16:57.721Z,10.98
2022-09-30T12:26:59.135Z,7.72
2022-09-30T12:37:00.414Z,11.98
2022-09-30T12:47:02.716Z,6.53
2022-09-30T12:57:04.074Z,8.90
2022-09-30T13:07:05.332Z,10.35
2022-09-30T13:17:06.568Z,7.72
2022-09-30T13:27:07.766Z,6.80
2022-09-30T13:37:09.458Z,6.60
2022-09-30T13:47:10.681Z,7.53
2022-09-30T13:57:11.983Z,8.80
2022-09-30T14:07:14.206Z,6.45
2022-09-30T14:17:15.581Z,5.32
2022-09-30T14:27:16.960Z,6.03
2022-09-30T14:37:18.655Z,7.35
2022-09-30T14:47:22.875Z,8.75
2022-09-30T14:57:24.215Z,5.17
2022-09-30T15:07:25.710Z,5.90
2022-09-30T15:17:30.076Z,5.25
2022-09-30T15:27:31.612Z,4.33
2022-09-30T15:37:33.900Z,5.75
2022-09-30T15:47:35.448Z,8.38
2022-09-30T15:57:37.445Z,7.72
2022-09-30T16:07:38.973Z,4.90
2022-09-30T16:17:40.334Z,7.43
2022-09-30T16:27:41.875Z,6.20
2022-09-30T16:37:44.194Z,9.40
2022-09-30T16:47:45.903Z,7.32
2022-09-30T16:57:47.225Z,8.30
2022-09-30T17:07:49.586Z,9.63
2022-09-30T17:17:52.832Z,12.55
2022-09-30T17:27:54.346Z,9.15
2022-09-30T17:37:56.481Z,8.15
2022-09-30T17:47:57.767Z,6.28
2022-09-30T17:57:59.248Z,7.03
2022-09-30T18:08:00.570Z,15.55
2022-09-30T18:18:01.875Z,16.50
2022-09-30T18:28:04.261Z,12.77
2022-09-30T18:38:05.614Z,7.50
2022-09-30T18:48:07.560Z,13.27
2022-09-30T18:58:09.083Z,10.75
2022-09-30T19:08:10.615Z,10.63
2022-09-30T19:18:12.125Z,13.55
2022-09-30T19:28:14.668Z,12.60
2022-09-30T19:38:17.237Z,13.23
2022-09-30T19:48:20.270Z,19.98
2022-09-30T19:58:21.845Z,18.52
2022-09-30T20:08:23.073Z,16.65
2022-09-30T20:18:24.427Z,14.88
2022-09-30T20:28:25.891Z,14.23
2022-09-30T20:38:27.327Z,14.38
2022-09-30T20:48:32.613Z,12.82
2022-09-30T20:58:34.811Z,15.13
2022-09-30T21:08:38.752Z,19.13
2022-09-30T21:18:41.058Z,14.52
2022-09-30T21:28:45.598Z,13.93
2022-09-30T21:38:50.080Z,17.30
2022-09-30T21:48:53.706Z,18.30
2022-09-30T21:58:55.401Z,20.52
2022-09-30T22:08:56.689Z,23.02
2022-09-30T22:19:00.130Z,18.77
2022-09-30T22:29:01.467Z,20.13
2022-09-30T22:39:02.667Z,19.98
2022-09-30T22:49:03.903Z,23.13
2022-09-30T22:59:06.311Z,20.88
2022-09-30T23:09:07.628Z,18.08
2022-09-30T23:19:08.931Z,19.52
2022-09-30T23:29:10.280Z,23.02
2022-09-30T23:39:12.610Z,19.52
2022-09-30T23:49:13.980Z,19.95
2022-09-30T23:59:15.177Z,20.73
